createdAt,value
2019-05-23T00:02:03.967Z,8.70
2019-05-23T00:04:44.117Z,8.70
2019-05-23T00:07:14.808Z,8.70
2019-05-23T00:09:43.901Z,8.70
2019-05-23T00:12:29.400Z,8.70
2019-05-23T00:15:01.528Z,8.60
2019-05-23T00:17:30.871Z,8.60
2019-05-23T00:20:01.713Z,8.70
2019-05-23T00:22:31.306Z,8.70
2019-05-23T00:25:00.866Z,8.70
2019-05-23T00:27:30.548Z,8.70
2019-05-23T00:30:01.340Z,8.70
2019-05-23T00:32:34.150Z,8.70
2019-05-23T00:35:04.495Z,8.80
2019-05-23T00:37:34.295Z,8.80
2019-05-23T00:40:04.001Z,8.80
2019-05-23T00:42:33.639Z,8.80
2019-05-23T00:45:02.870Z,8.80
2019-05-23T00:47:31.876Z,8.80
2019-05-23T00:50:01.523Z,8.80
2019-05-23T00:52:30.439Z,8.80
2019-05-23T00:54:59.895Z,8.80
2019-05-23T00:57:30.305Z,8.80
2019-05-23T01:00:00.462Z,8.80
2019-05-23T01:02:30.663Z,8.90
2019-05-23T01:05:00.235Z,8.90
2019-05-23T01:07:30.329Z,8.90
2019-05-23T01:09:59.433Z,8.90
2019-05-23T01:12:28.380Z,8.90
2019-05-23T01:14:57.781Z,8.90
2019-05-23T01:17:27.518Z,8.90
2019-05-23T01:19:57.011Z,8.90
2019-05-23T01:22:25.802Z,8.90
2019-05-23T01:24:56.179Z,8.90
2019-05-23T01:27:25.251Z,9.00
2019-05-23T01:29:56.203Z,9.00
2019-05-23T01:32:29.354Z,9.00
2019-05-23T01:34:58.900Z,9.00
2019-05-23T01:37:27.717Z,9.00
2019-05-23T01:39:57.089Z,9.00
2019-05-23T01:42:26.932Z,9.00
2019-05-23T01:44:57.784Z,9.00
2019-05-23T01:47:27.682Z,9.00
2019-05-23T01:49:57.234Z,9.00
2019-05-23T01:52:26.742Z,9.00
2019-05-23T01:54:55.534Z,9.00
2019-05-23T01:57:24.511Z,9.00
2019-05-23T02:00:08.967Z,9.00
2019-05-23T02:02:27.398Z,9.00
2019-05-23T02:04:56.403Z,9.00
2019-05-23T02:07:26.110Z,9.00
2019-05-23T02:09:55.835Z,9.00
2019-05-23T02:12:24.822Z,9.00
2019-05-23T02:14:55.093Z,9.00
2019-05-23T02:17:25.758Z,9.00
2019-05-23T02:19:55.952Z,9.00
2019-05-23T02:22:25.088Z,9.00
2019-05-23T02:24:54.598Z,9.10
2019-05-23T02:27:25.589Z,9.10
2019-05-23T02:29:55.617Z,9.10
2019-05-23T02:32:26.300Z,9.00
2019-05-23T02:34:56.393Z,9.00
2019-05-23T02:37:26.826Z,9.00
2019-05-23T02:40:06.282Z,9.10
2019-05-23T02:42:36.895Z,9.10
2019-05-23T02:45:09.627Z,9.00
2019-05-23T02:47:43.439Z,9.00
2019-05-23T02:50:17.657Z,9.00
2019-05-23T02:52:49.626Z,9.00
2019-05-23T02:55:22.210Z,9.00
2019-05-23T02:57:52.208Z,9.00
2019-05-23T03:00:52.524Z,9.00
2019-05-23T03:03:09.191Z,9.10
2019-05-23T03:05:39.015Z,9.00
2019-05-23T03:08:10.541Z,9.00
2019-05-23T03:10:57.878Z,9.00
2019-05-23T03:13:29.045Z,9.00
2019-05-23T03:15:58.657Z,8.90
2019-05-23T03:18:34.606Z,8.90
2019-05-23T03:21:06.007Z,9.00
2019-05-23T03:23:35.644Z,8.90
2019-05-23T03:26:33.559Z,8.90
2019-05-23T03:29:06.143Z,8.90
2019-05-23T03:31:37.248Z,8.90
2019-05-23T03:34:08.176Z,8.90
2019-05-23T03:36:38.062Z,8.90
2019-05-23T03:39:09.517Z,8.90
2019-05-23T03:41:38.795Z,8.90
2019-05-23T03:44:09.603Z,8.90
2019-05-23T03:46:40.368Z,8.90
2019-05-23T03:49:10.463Z,8.90
2019-05-23T03:51:41.606Z,8.90
2019-05-23T03:54:13.021Z,8.90
2019-05-23T03:56:42.143Z,8.90
2019-05-23T03:59:12.889Z,8.90
2019-05-23T04:01:48.569Z,8.90
2019-05-23T04:04:16.273Z,8.90
2019-05-23T04:06:47.484Z,8.90
2019-05-23T04:09:16.850Z,8.90
2019-05-23T04:11:45.657Z,8.90
2019-05-23T04:14:14.779Z,8.90
2019-05-23T04:16:44.028Z,8.90
2019-05-23T04:19:13.558Z,8.90
2019-05-23T04:21:43.083Z,8.90
2019-05-23T04:24:12.323Z,8.90
2019-05-23T04:26:41.674Z,9.00
2019-05-23T04:29:10.573Z,8.90
2019-05-23T04:31:39.355Z,9.00
2019-05-23T04:34:09.678Z,9.00
2019-05-23T04:36:38.537Z,8.90
2019-05-23T04:39:08.502Z,9.00
2019-05-23T04:41:38.315Z,9.00
2019-05-23T04:44:07.225Z,9.10
2019-05-23T04:46:36.312Z,9.10
2019-05-23T04:49:05.140Z,9.00
2019-05-23T04:51:34.860Z,9.10
2019-05-23T04:54:04.235Z,9.00
2019-05-23T04:56:33.031Z,9.00
2019-05-23T04:59:03.475Z,9.00
2019-05-23T05:01:32.968Z,9.10
2019-05-23T05:04:02.319Z,9.10
2019-05-23T05:06:31.710Z,9.10
2019-05-23T05:09:00.840Z,9.10
2019-05-23T05:11:30.615Z,9.10
2019-05-23T05:14:00.045Z,9.10
2019-05-23T05:16:29.328Z,9.20
2019-05-23T05:18:59.022Z,9.20
2019-05-23T05:21:27.907Z,9.30
2019-05-23T05:23:56.875Z,9.30
2019-05-23T05:26:25.707Z,9.30
2019-05-23T05:28:55.012Z,9.30
2019-05-23T05:31:23.827Z,9.30
2019-05-23T05:33:52.841Z,9.40
2019-05-23T05:36:21.680Z,9.40
2019-05-23T05:38:50.875Z,9.40
2019-05-23T05:41:20.684Z,9.40
2019-05-23T05:43:49.839Z,9.30
2019-05-23T05:46:19.086Z,9.40
2019-05-23T05:48:48.230Z,9.40
2019-05-23T05:51:17.600Z,9.40
2019-05-23T05:53:47.748Z,9.40
2019-05-23T05:56:18.311Z,9.40
2019-05-23T05:58:47.689Z,9.40
2019-05-23T06:01:32.883Z,9.40
2019-05-23T06:03:48.414Z,9.40
2019-05-23T06:06:30.848Z,9.40
2019-05-23T06:09:01.250Z,9.40
2019-05-23T06:11:33.544Z,9.50
2019-05-23T06:14:02.374Z,9.50
2019-05-23T06:16:31.802Z,9.50
2019-05-23T06:19:00.760Z,9.60
2019-05-23T06:21:30.837Z,9.50
2019-05-23T06:24:00.343Z,9.50
2019-05-23T06:26:33.091Z,9.60
2019-05-23T06:29:03.425Z,9.60
2019-05-23T06:31:39.589Z,9.60
2019-05-23T06:34:09.387Z,9.70
2019-05-23T06:36:44.118Z,9.80
2019-05-23T06:39:14.049Z,9.90
2019-05-23T06:41:47.204Z,10.00
2019-05-23T06:44:17.841Z,10.10
2019-05-23T06:46:48.640Z,10.10
2019-05-23T06:49:19.143Z,10.10
2019-05-23T06:51:52.114Z,10.10
2019-05-23T06:54:24.139Z,10.00
2019-05-23T06:57:07.792Z,10.00
2019-05-23T06:59:38.020Z,10.00
2019-05-23T07:02:17.168Z,10.10
2019-05-23T07:04:49.346Z,10.00
2019-05-23T07:07:19.926Z,10.10
2019-05-23T07:09:52.691Z,10.10
2019-05-23T07:12:25.794Z,10.10
2019-05-23T07:14:56.185Z,10.00
2019-05-23T07:17:30.241Z,9.90
2019-05-23T07:20:02.663Z,9.80
2019-05-23T07:22:33.630Z,9.80
2019-05-23T07:25:03.766Z,9.80
2019-05-23T07:27:35.619Z,9.90
2019-05-23T07:30:15.807Z,9.90
2019-05-23T07:32:46.408Z,9.90
2019-05-23T07:35:17.304Z,9.90
2019-05-23T07:37:50.627Z,9.90
2019-05-23T07:40:22.290Z,9.90
2019-05-23T07:42:52.098Z,9.90
2019-05-23T07:45:25.600Z,9.90
2019-05-23T07:47:54.687Z,9.80
2019-05-23T07:50:27.586Z,9.80
2019-05-23T07:52:59.712Z,9.90
2019-05-23T07:55:45.884Z,9.80
2019-05-23T07:58:15.774Z,9.90
2019-05-23T08:00:49.529Z,9.90
2019-05-23T08:03:22.585Z,9.90
2019-05-23T08:05:54.820Z,9.90
2019-05-23T08:08:28.284Z,10.00
2019-05-23T08:10:57.109Z,9.90
2019-05-23T08:13:27.488Z,9.90
2019-05-23T08:16:00.482Z,9.90
2019-05-23T08:18:31.149Z,9.90
2019-05-23T08:21:02.851Z,9.90
2019-05-23T08:23:32.258Z,9.90
2019-05-23T08:26:04.431Z,9.90
2019-05-23T08:28:36.804Z,9.80
2019-05-23T08:31:09.496Z,9.80
2019-05-23T08:33:44.215Z,9.80
2019-05-23T08:36:15.797Z,9.80
2019-05-23T08:38:47.520Z,9.80
2019-05-23T08:41:19.874Z,9.70
2019-05-23T08:43:52.605Z,9.70
2019-05-23T08:46:25.026Z,9.70
2019-05-23T08:48:56.054Z,9.70
2019-05-23T08:51:25.407Z,9.70
2019-05-23T08:53:55.033Z,9.70
2019-05-23T08:56:24.779Z,9.70
2019-05-23T08:58:56.125Z,9.60
2019-05-23T09:01:29.217Z,9.70
2019-05-23T09:04:02.264Z,9.60
2019-05-23T09:06:33.809Z,9.60
2019-05-23T09:09:29.146Z,9.60
2019-05-23T09:11:49.718Z,9.60
2019-05-23T09:14:20.541Z,9.60
2019-05-23T09:16:51.809Z,9.50
2019-05-23T09:19:23.125Z,9.50
2019-05-23T09:21:57.909Z,9.50
2019-05-23T09:24:34.637Z,9.50
2019-05-23T09:27:08.142Z,9.50
2019-05-23T09:29:40.767Z,9.50
2019-05-23T09:32:11.153Z,9.60
2019-05-23T09:34:40.720Z,9.60
2019-05-23T09:37:12.641Z,9.70
2019-05-23T09:39:42.558Z,9.80
2019-05-23T09:42:12.850Z,9.90
2019-05-23T09:44:45.644Z,9.90
2019-05-23T09:47:16.040Z,10.00
2019-05-23T09:49:53.912Z,10.10
2019-05-23T09:52:20.595Z,10.20
2019-05-23T09:54:53.251Z,10.20
2019-05-23T09:57:24.082Z,10.20
2019-05-23T09:59:56.925Z,10.30
2019-05-23T10:02:29.331Z,10.30
2019-05-23T10:05:03.053Z,10.30
2019-05-23T10:07:33.118Z,10.40
2019-05-23T10:10:03.454Z,10.60
2019-05-23T10:12:37.573Z,10.70
2019-05-23T10:15:11.796Z,10.90
2019-05-23T10:17:40.633Z,11.10
2019-05-23T10:20:10.076Z,11.20
2019-05-23T10:22:38.871Z,11.30
2019-05-23T10:25:08.374Z,11.40
2019-05-23T10:27:37.179Z,11.50
2019-05-23T10:30:09.972Z,11.60
2019-05-23T10:32:39.047Z,11.70
2019-05-23T10:35:08.375Z,11.70
2019-05-23T10:37:37.526Z,11.60
2019-05-23T10:40:08.635Z,11.70
2019-05-23T10:42:37.930Z,11.80
2019-05-23T10:45:08.329Z,11.70
2019-05-23T10:47:38.432Z,11.70
2019-05-23T10:50:10.151Z,11.60
2019-05-23T10:52:39.257Z,11.40
2019-05-23T10:55:09.419Z,11.50
2019-05-23T10:57:38.209Z,11.50
2019-05-23T11:00:10.222Z,11.50
2019-05-23T11:02:40.982Z,11.50
2019-05-23T11:05:13.513Z,11.60
2019-05-23T11:07:42.753Z,11.70
2019-05-23T11:10:13.205Z,11.70
2019-05-23T11:12:42.470Z,11.80
2019-05-23T11:15:12.857Z,11.70
2019-05-23T11:17:41.754Z,11.80
2019-05-23T11:20:12.559Z,11.90
2019-05-23T11:22:42.457Z,11.90
2019-05-23T11:25:13.357Z,11.80
2019-05-23T11:27:42.635Z,11.80
2019-05-23T11:30:20.552Z,11.80
2019-05-23T11:32:49.365Z,11.70
2019-05-23T11:35:18.174Z,11.90
2019-05-23T11:37:48.335Z,11.80
2019-05-23T11:40:17.440Z,11.80
2019-05-23T11:42:46.280Z,11.90
2019-05-23T11:45:16.855Z,11.90
2019-05-23T11:47:46.063Z,11.90
2019-05-23T11:50:15.174Z,11.90
2019-05-23T11:52:44.352Z,12.00
2019-05-23T11:55:13.660Z,11.90
2019-05-23T11:57:42.522Z,11.90
2019-05-23T12:00:14.761Z,11.90
2019-05-23T12:02:45.552Z,12.00
2019-05-23T12:05:15.864Z,12.10
2019-05-23T12:07:45.016Z,12.10
2019-05-23T12:10:15.222Z,12.00
2019-05-23T12:12:44.067Z,12.00
2019-05-23T12:15:15.332Z,12.00
2019-05-23T12:17:44.577Z,12.00
2019-05-23T12:20:13.964Z,12.00
2019-05-23T12:22:43.427Z,12.00
2019-05-23T12:25:22.180Z,11.90
2019-05-23T12:27:43.745Z,11.90
2019-05-23T12:30:15.047Z,11.90
2019-05-23T12:32:44.067Z,11.80
2019-05-23T12:35:13.204Z,11.70
2019-05-23T12:37:42.072Z,11.60
2019-05-23T12:40:13.500Z,11.60
2019-05-23T12:42:42.329Z,11.60
2019-05-23T12:45:11.886Z,11.60
2019-05-23T12:47:57.258Z,11.50
2019-05-23T12:50:39.879Z,11.50
2019-05-23T12:53:10.262Z,11.60
2019-05-23T12:55:39.702Z,11.50
2019-05-23T12:58:08.438Z,11.50
2019-05-23T13:00:43.411Z,11.50
2019-05-23T13:03:15.054Z,11.50
2019-05-23T13:05:43.900Z,11.60
2019-05-23T13:08:12.937Z,11.60
2019-05-23T13:10:41.777Z,11.60
2019-05-23T13:13:13.844Z,11.60
2019-05-23T13:15:43.334Z,11.60
2019-05-23T13:18:12.121Z,11.70
2019-05-23T13:20:42.163Z,11.80
2019-05-23T13:23:20.258Z,11.80
2019-05-23T13:25:41.547Z,11.80
2019-05-23T13:28:10.429Z,11.90
2019-05-23T13:30:39.269Z,11.80
2019-05-23T13:33:08.709Z,11.80
2019-05-23T13:35:38.006Z,11.90
2019-05-23T13:38:06.848Z,11.80
2019-05-23T13:40:35.756Z,11.80
2019-05-23T13:43:07.800Z,11.80
2019-05-23T13:45:35.742Z,11.70
2019-05-23T13:48:04.687Z,11.70
2019-05-23T13:50:35.678Z,11.70
2019-05-23T13:53:04.835Z,11.70
2019-05-23T13:55:33.625Z,11.70
2019-05-23T13:58:02.770Z,11.60
2019-05-23T14:00:32.567Z,11.50
2019-05-23T14:03:01.708Z,11.50
2019-05-23T14:05:33.183Z,11.40
2019-05-23T14:08:12.126Z,11.40
2019-05-23T14:10:33.766Z,11.40
2019-05-23T14:13:03.075Z,11.40
2019-05-23T14:15:33.471Z,11.50
2019-05-23T14:18:02.363Z,11.40
2019-05-23T14:20:33.641Z,11.40
2019-05-23T14:23:04.925Z,11.40
2019-05-23T14:25:33.766Z,11.50
2019-05-23T14:28:04.126Z,11.60
2019-05-23T14:30:37.658Z,11.50
2019-05-23T14:33:27.057Z,11.50
2019-05-23T14:35:57.934Z,11.40
2019-05-23T14:38:31.166Z,11.40
2019-05-23T14:40:59.459Z,11.40
2019-05-23T14:43:29.198Z,11.30
2019-05-23T14:46:05.723Z,11.30
2019-05-23T14:48:39.185Z,11.30
2019-05-23T14:51:25.820Z,11.30
2019-05-23T14:53:56.442Z,11.30
2019-05-23T14:56:27.239Z,11.20
2019-05-23T14:58:56.271Z,11.20
2019-05-23T15:01:26.686Z,11.20
2019-05-23T15:03:55.896Z,11.30
2019-05-23T15:06:25.123Z,11.30
2019-05-23T15:08:54.068Z,11.30
2019-05-23T15:11:22.866Z,11.30
2019-05-23T15:13:51.705Z,11.30
2019-05-23T15:16:20.603Z,11.20
2019-05-23T15:18:49.443Z,11.20
2019-05-23T15:21:18.513Z,11.20
2019-05-23T15:23:48.795Z,11.10
2019-05-23T15:26:23.036Z,11.10
2019-05-23T15:28:48.086Z,11.10
2019-05-23T15:31:17.667Z,11.10
2019-05-23T15:33:46.810Z,11.00
2019-05-23T15:36:15.668Z,11.00
2019-05-23T15:38:44.863Z,10.90
2019-05-23T15:41:16.968Z,10.90
2019-05-23T15:43:47.275Z,10.80
2019-05-23T15:46:16.210Z,10.80
2019-05-23T15:48:45.416Z,10.80
2019-05-23T15:51:16.173Z,10.70
2019-05-23T15:53:55.303Z,10.70
2019-05-23T15:56:41.951Z,10.70
2019-05-23T15:59:12.513Z,10.70
2019-05-23T16:01:55.389Z,10.60
2019-05-23T16:04:25.252Z,10.60
2019-05-23T16:06:55.058Z,10.70
2019-05-23T16:09:29.948Z,10.60
2019-05-23T16:11:58.954Z,10.60
2019-05-23T16:14:28.149Z,10.60
2019-05-23T16:16:57.702Z,10.50
2019-05-23T16:19:26.672Z,10.40
2019-05-23T16:21:55.580Z,10.40
2019-05-23T16:24:24.881Z,10.40
2019-05-23T16:26:54.249Z,10.30
2019-05-23T16:29:24.624Z,10.30
2019-05-23T16:31:54.410Z,10.30
2019-05-23T16:34:23.817Z,10.20
2019-05-23T16:36:52.655Z,10.20
2019-05-23T16:39:22.664Z,10.20
2019-05-23T16:41:51.516Z,10.10
2019-05-23T16:44:20.316Z,10.10
2019-05-23T16:46:52.262Z,10.10
2019-05-23T16:49:21.497Z,10.10
2019-05-23T16:51:50.353Z,10.10
2019-05-23T16:54:20.717Z,10.10
2019-05-23T16:56:51.147Z,10.00
2019-05-23T16:59:24.568Z,10.00
2019-05-23T17:02:04.469Z,9.90
2019-05-23T17:04:43.266Z,9.90
2019-05-23T17:07:22.648Z,9.70
2019-05-23T17:10:08.065Z,9.70
2019-05-23T17:12:40.510Z,9.60
2019-05-23T17:15:27.275Z,9.60
2019-05-23T17:18:16.299Z,9.60
2019-05-23T17:20:52.443Z,9.50
2019-05-23T17:23:22.969Z,9.50
2019-05-23T17:26:09.811Z,9.40
2019-05-23T17:28:40.195Z,9.40
2019-05-23T17:31:10.586Z,9.40
2019-05-23T17:33:39.733Z,9.30
2019-05-23T17:36:09.144Z,9.40
2019-05-23T17:38:37.967Z,9.40
2019-05-23T17:41:06.962Z,9.30
2019-05-23T17:43:35.810Z,9.30
2019-05-23T17:46:04.621Z,9.30
2019-05-23T17:48:33.451Z,9.30
2019-05-23T17:51:02.323Z,9.30
2019-05-23T17:53:31.509Z,9.40
2019-05-23T17:56:00.297Z,9.40
2019-05-23T17:58:29.456Z,9.40
2019-05-23T18:00:58.912Z,9.30
2019-05-23T18:03:28.194Z,9.40
2019-05-23T18:05:57.656Z,9.40
2019-05-23T18:08:27.261Z,9.40
2019-05-23T18:10:56.967Z,9.50
2019-05-23T18:13:25.802Z,9.50
2019-05-23T18:15:54.978Z,9.50
2019-05-23T18:18:24.524Z,9.60
2019-05-23T18:20:53.700Z,9.50
2019-05-23T18:23:22.757Z,9.60
2019-05-23T18:25:54.489Z,9.60
2019-05-23T18:28:24.644Z,9.60
2019-05-23T18:30:55.347Z,9.60
2019-05-23T18:33:26.014Z,9.60
2019-05-23T18:35:56.256Z,9.60
2019-05-23T18:38:25.446Z,9.60
2019-05-23T18:41:04.028Z,9.70
2019-05-23T18:43:25.951Z,9.60
2019-05-23T18:45:56.327Z,9.70
2019-05-23T18:48:25.286Z,9.70
2019-05-23T18:50:54.627Z,9.70
2019-05-23T18:53:23.438Z,9.70
2019-05-23T18:55:52.541Z,9.70
2019-05-23T18:58:21.363Z,9.80
2019-05-23T19:01:04.716Z,9.80
2019-05-23T19:03:33.976Z,9.80
2019-05-23T19:06:02.972Z,9.80
2019-05-23T19:08:31.756Z,9.80
2019-05-23T19:11:00.844Z,9.80
2019-05-23T19:13:29.637Z,9.80
2019-05-23T19:15:58.827Z,9.80
2019-05-23T19:18:28.178Z,9.80
2019-05-23T19:20:59.138Z,9.80
2019-05-23T19:23:28.370Z,9.90
2019-05-23T19:25:57.638Z,9.90
2019-05-23T19:28:26.736Z,9.80
2019-05-23T19:30:57.042Z,9.80
2019-05-23T19:33:26.178Z,9.80
2019-05-23T19:35:56.577Z,9.80
2019-05-23T19:38:25.352Z,9.80
2019-05-23T19:40:54.771Z,9.80
2019-05-23T19:43:23.783Z,9.80
2019-05-23T19:45:52.573Z,9.80
2019-05-23T19:48:22.970Z,9.70
2019-05-23T19:50:53.055Z,9.70
2019-05-23T19:53:21.894Z,9.70
2019-05-23T19:55:50.697Z,9.70
2019-05-23T19:58:20.396Z,9.70
2019-05-23T20:00:50.237Z,9.60
2019-05-23T20:03:19.747Z,9.60
2019-05-23T20:05:51.003Z,9.60
2019-05-23T20:08:20.145Z,9.60
2019-05-23T20:10:48.954Z,9.60
2019-05-23T20:13:18.778Z,9.60
2019-05-23T20:15:48.877Z,9.60
2019-05-23T20:18:18.231Z,9.60
2019-05-23T20:20:47.750Z,9.50
2019-05-23T20:23:16.904Z,9.60
2019-05-23T20:25:46.315Z,9.50
2019-05-23T20:28:18.284Z,9.60
2019-05-23T20:30:54.019Z,9.60
2019-05-23T20:33:22.869Z,9.60
2019-05-23T20:35:51.601Z,9.60
2019-05-23T20:38:20.492Z,9.60
2019-05-23T20:40:49.334Z,9.60
2019-05-23T20:43:18.271Z,9.60
2019-05-23T20:45:47.098Z,9.60
2019-05-23T20:48:16.295Z,9.60
2019-05-23T20:50:45.244Z,9.60
2019-05-23T20:53:14.223Z,9.60
2019-05-23T20:55:43.150Z,9.60
2019-05-23T20:58:12.592Z,9.60
2019-05-23T21:00:43.092Z,9.60
2019-05-23T21:03:12.360Z,9.60
2019-05-23T21:05:41.739Z,9.70
2019-05-23T21:08:10.581Z,9.50
2019-05-23T21:10:47.317Z,9.60
2019-05-23T21:13:16.642Z,9.60
2019-05-23T21:15:46.138Z,9.50
2019-05-23T21:18:15.301Z,9.50
2019-05-23T21:20:44.871Z,9.50
2019-05-23T21:23:14.090Z,9.50
2019-05-23T21:25:44.945Z,9.50
2019-05-23T21:28:13.783Z,9.50
2019-05-23T21:30:42.634Z,9.60
2019-05-23T21:33:11.485Z,9.50
2019-05-23T21:35:40.427Z,9.50
2019-05-23T21:38:09.415Z,9.50
2019-05-23T21:40:40.763Z,9.50
2019-05-23T21:43:09.764Z,9.60
2019-05-23T21:45:38.559Z,9.60
2019-05-23T21:48:07.509Z,9.50
2019-05-23T21:50:36.438Z,9.50
2019-05-23T21:53:05.637Z,9.60
2019-05-23T21:55:42.027Z,9.60
2019-05-23T21:58:12.872Z,9.50
2019-05-23T22:01:07.230Z,9.50
2019-05-23T22:03:45.359Z,9.50
2019-05-23T22:06:15.777Z,9.60
2019-05-23T22:08:45.566Z,9.50
2019-05-23T22:11:15.978Z,9.50
2019-05-23T22:13:46.540Z,9.50
2019-05-23T22:16:15.690Z,9.60
2019-05-23T22:18:44.670Z,9.50
2019-05-23T22:21:14.663Z,9.50
2019-05-23T22:23:43.495Z,9.50
2019-05-23T22:26:12.505Z,9.50
2019-05-23T22:28:41.695Z,9.50
2019-05-23T22:31:11.593Z,9.50
2019-05-23T22:33:45.071Z,9.60
2019-05-23T22:36:14.615Z,9.60
2019-05-23T22:38:44.386Z,9.60
2019-05-23T22:41:13.235Z,9.60
2019-05-23T22:43:42.242Z,9.50
2019-05-23T22:46:11.510Z,9.50
2019-05-23T22:48:40.325Z,9.60
2019-05-23T22:51:09.490Z,9.50
2019-05-23T22:53:38.589Z,9.60
2019-05-23T22:56:10.032Z,9.50
2019-05-23T22:58:41.372Z,9.50
2019-05-23T23:01:10.567Z,9.50
2019-05-23T23:03:39.390Z,9.50
2019-05-23T23:06:08.193Z,9.40
2019-05-23T23:08:37.661Z,9.50
2019-05-23T23:11:06.731Z,9.50
2019-05-23T23:13:38.937Z,9.50
2019-05-23T23:16:06.464Z,9.40
2019-05-23T23:18:35.279Z,9.40
2019-05-23T23:21:04.081Z,9.40
2019-05-23T23:23:33.315Z,9.40
2019-05-23T23:26:02.305Z,9.30
2019-05-23T23:28:31.155Z,9.30
2019-05-23T23:31:00.043Z,9.30
2019-05-23T23:33:28.882Z,9.30
2019-05-23T23:35:57.680Z,9.30
2019-05-23T23:38:26.483Z,9.20
2019-05-23T23:40:55.330Z,9.20
2019-05-23T23:43:24.130Z,9.10
2019-05-23T23:46:10.682Z,9.10
2019-05-23T23:48:57.719Z,9.10
2019-05-23T23:51:44.611Z,9.10
2019-05-23T23:54:30.886Z,9.10
2019-05-23T23:57:18.084Z,9.10
2019-05-23T23:59:46.230Z,9.10
